Time;durP1;ratioP1;P1;durP2;ratioP2;P2;SDS_P1;SDS_P2;PMS_P1;PMS_P2;Temp;Humidity;BMP_temperature;BMP_pressure;BME280_temperature;BME280_humidity;BME280_pressure;Samples;Min_cycle;Max_cycle;Signal;HPM_P1;HPM_P2
2023/03/14 00:01:11;;;;;;;3.00;1.40;;;;;;;-128.00;-1.00;-1.00;97988;293;1003495;-35
2023/03/14 00:03:36;;;;;;;3.90;1.90;;;;;;;-128.00;-1.00;-1.00;98026;293;1004238;-31
2023/03/14 00:06:03;;;;;;;3.00;1.70;;;;;;;-128.00;-1.00;-1.00;97896;293;1003075;-32
2023/03/14 00:08:29;;;;;;;3.20;1.70;;;;;;;-128.00;-1.00;-1.00;97994;293;1004073;-29
2023/03/14 00:10:54;;;;;;;3.20;1.30;;;;;;;-128.00;-1.00;-1.00;98090;286;1003785;-30
2023/03/14 00:13:20;;;;;;;3.60;1.40;;;;;;;-128.00;-1.00;-1.00;98074;293;1004123;-29
2023/03/14 00:15:46;;;;;;;3.10;1.10;;;;;;;-128.00;-1.00;-1.00;97997;293;1004147;-35
2023/03/14 00:18:11;;;;;;;3.40;1.60;;;;;;;-128.00;-1.00;-1.00;97937;293;1003537;-34
2023/03/14 00:20:37;;;;;;;4.20;1.40;;;;;;;-128.00;-1.00;-1.00;97922;293;1003341;-31
2023/03/14 00:23:02;;;;;;;4.60;2.20;;;;;;;-128.00;-1.00;-1.00;98042;293;1003131;-28
2023/03/14 00:25:28;;;;;;;3.50;2.10;;;;;;;-128.00;-1.00;-1.00;97984;282;1003904;-35
2023/03/14 00:27:54;;;;;;;2.90;1.20;;;;;;;-128.00;-1.00;-1.00;97949;293;1003216;-35
2023/03/14 00:30:20;;;;;;;4.40;1.60;;;;;;;-128.00;-1.00;-1.00;98066;293;1003268;-31
2023/03/14 00:32:45;;;;;;;4.20;1.20;;;;;;;-128.00;-1.00;-1.00;97931;293;1003871;-31
2023/03/14 00:35:11;;;;;;;2.70;1.20;;;;;;;-128.00;-1.00;-1.00;97953;293;1004363;-33
2023/03/14 00:37:37;;;;;;;3.20;1.30;;;;;;;-128.00;-1.00;-1.00;98042;293;1003248;-33
2023/03/14 00:40:05;;;;;;;2.80;1.50;;;;;;;-128.00;-1.00;-1.00;98201;293;1003380;-29
2023/03/14 00:42:32;;;;;;;7.40;1.40;;;;;;;-128.00;-1.00;-1.00;97991;293;1002927;-33
2023/03/14 00:44:57;;;;;;;8.60;1.60;;;;;;;-128.00;-1.00;-1.00;97986;293;1004401;-33
2023/03/14 00:47:23;;;;;;;1.50;1.10;;;;;;;-128.00;-1.00;-1.00;98033;294;1003138;-29
2023/03/14 00:49:49;;;;;;;2.80;1.40;;;;;;;-128.00;-1.00;-1.00;98039;294;1003080;-33
2023/03/14 00:52:15;;;;;;;2.60;1.50;;;;;;;-128.00;-1.00;-1.00;97876;294;1003434;-32
2023/03/14 00:54:40;;;;;;;2.40;1.30;;;;;;;-128.00;-1.00;-1.00;97869;294;1003398;-30
2023/03/14 00:57:06;;;;;;;4.30;0.90;;;;;;;-128.00;-1.00;-1.00;97998;294;1004865;-37
2023/03/14 00:59:31;;;;;;;2.00;0.90;;;;;;;-128.00;-1.00;-1.00;98127;294;1004302;-32
2023/03/14 01:01:59;;;;;;;20.00;1.70;;;;;;;-128.00;-1.00;-1.00;97888;294;1004081;-29
2023/03/14 01:04:25;;;;;;;4.50;1.70;;;;;;;-128.00;-1.00;-1.00;97795;294;1003239;-30
2023/03/14 01:06:50;;;;;;;8.90;1.60;;;;;;;-128.00;-1.00;-1.00;97803;294;1004241;-33
2023/03/14 01:09:17;;;;;;;2.60;1.50;;;;;;;-128.00;-1.00;-1.00;97956;294;1003109;-30
2023/03/14 01:11:46;;;;;;;4.70;2.60;;;;;;;-128.00;-1.00;-1.00;97920;294;1003611;-32
2023/03/14 01:14:12;;;;;;;3.10;1.40;;;;;;;-128.00;-1.00;-1.00;97910;294;1003260;-33
2023/03/14 01:16:38;;;;;;;10.00;2.20;;;;;;;-128.00;-1.00;-1.00;97905;294;1005831;-31
2023/03/14 01:19:04;;;;;;;3.20;1.60;;;;;;;-128.00;-1.00;-1.00;97989;294;1004475;-31
2023/03/14 01:21:31;;;;;;;4.40;1.70;;;;;;;-128.00;-1.00;-1.00;98044;294;1003620;-29
2023/03/14 01:23:58;;;;;;;7.70;2.10;;;;;;;-128.00;-1.00;-1.00;97996;294;1002737;-33
2023/03/14 01:26:24;;;;;;;3.60;2.00;;;;;;;-128.00;-1.00;-1.00;97969;294;1003100;-30
2023/03/14 01:28:51;;;;;;;9.00;1.70;;;;;;;-128.00;-1.00;-1.00;97904;294;1003200;-31
2023/03/14 01:31:17;;;;;;;2.80;1.30;;;;;;;-128.00;-1.00;-1.00;98037;294;1003924;-33
2023/03/14 01:33:43;;;;;;;3.20;1.40;;;;;;;-128.00;-1.00;-1.00;97972;294;1004248;-30
2023/03/14 01:36:09;;;;;;;4.70;1.60;;;;;;;-128.00;-1.00;-1.00;97952;294;1002545;-29
2023/03/14 01:38:36;;;;;;;5.80;1.60;;;;;;;-128.00;-1.00;-1.00;98010;294;1004344;-33
2023/03/14 01:41:01;;;;;;;4.30;1.90;;;;;;;-128.00;-1.00;-1.00;97833;294;1003209;-29
2023/03/14 01:43:27;;;;;;;5.60;1.90;;;;;;;-128.00;-1.00;-1.00;97912;294;1003553;-37
2023/03/14 01:46:25;;;;;;;2.60;1.70;;;;;;;-128.00;-1.00;-1.00;97887;294;1003313;-33
2023/03/14 01:48:57;;;;;;;3.70;1.30;;;;;;;-128.00;-1.00;-1.00;97974;294;1003461;-33
2023/03/14 01:51:43;;;;;;;2.20;1.20;;;;;;;-128.00;-1.00;-1.00;97985;293;1003091;-28
2023/03/14 01:54:14;;;;;;;3.30;1.80;;;;;;;-128.00;-1.00;-1.00;97790;294;1004646;-29
2023/03/14 01:56:40;;;;;;;6.10;1.60;;;;;;;-128.00;-1.00;-1.00;97846;294;1003191;-32
2023/03/14 01:59:07;;;;;;;6.10;1.70;;;;;;;-128.00;-1.00;-1.00;97870;294;1005113;-32
2023/03/14 02:01:32;;;;;;;2.40;1.40;;;;;;;-128.00;-1.00;-1.00;98081;294;1002999;-31
2023/03/14 02:04:00;;;;;;;3.60;1.60;;;;;;;-128.00;-1.00;-1.00;97941;294;1003091;-34
2023/03/14 02:06:29;;;;;;;3.60;2.30;;;;;;;-128.00;-1.00;-1.00;97891;294;1003511;-33
2023/03/14 02:08:54;;;;;;;4.50;1.80;;;;;;;-128.00;-1.00;-1.00;98004;294;1003137;-31
2023/03/14 02:11:20;;;;;;;4.40;1.50;;;;;;;-128.00;-1.00;-1.00;98015;294;1002794;-34
2023/03/14 02:13:46;;;;;;;3.10;1.60;;;;;;;-128.00;-1.00;-1.00;97866;294;1002926;-34
2023/03/14 02:16:11;;;;;;;3.80;1.80;;;;;;;-128.00;-1.00;-1.00;97881;294;1003235;-33
2023/03/14 02:18:37;;;;;;;4.00;1.50;;;;;;;-128.00;-1.00;-1.00;97896;294;1002601;-33
2023/03/14 02:21:27;;;;;;;3.50;1.50;;;;;;;-128.00;-1.00;-1.00;97921;294;1004305;-30
2023/03/14 02:24:14;;;;;;;11.00;1.40;;;;;;;-128.00;-1.00;-1.00;98079;294;1004368;-29
2023/03/14 02:26:43;;;;;;;5.00;1.90;;;;;;;-128.00;-1.00;-1.00;97923;282;1003988;-29
2023/03/14 02:29:09;;;;;;;3.30;1.50;;;;;;;-128.00;-1.00;-1.00;98054;294;1003191;-29
2023/03/14 02:31:35;;;;;;;2.30;1.50;;;;;;;-128.00;-1.00;-1.00;97962;294;1003409;-34
2023/03/14 02:34:01;;;;;;;2.70;1.40;;;;;;;-128.00;-1.00;-1.00;97914;294;1003362;-34
2023/03/14 02:36:26;;;;;;;1.50;0.90;;;;;;;-128.00;-1.00;-1.00;97899;294;1003509;-33
2023/03/14 02:39:08;;;;;;;4.50;1.70;;;;;;;-128.00;-1.00;-1.00;98009;294;1003575;-30
2023/03/14 02:41:34;;;;;;;2.40;1.00;;;;;;;-128.00;-1.00;-1.00;98051;294;1003348;-36
2023/03/14 02:43:59;;;;;;;3.70;1.50;;;;;;;-128.00;-1.00;-1.00;98014;294;1003561;-31
2023/03/14 02:46:26;;;;;;;1.80;1.00;;;;;;;-128.00;-1.00;-1.00;97942;294;1003551;-34
2023/03/14 02:48:57;;;;;;;5.30;2.60;;;;;;;-128.00;-1.00;-1.00;97846;294;1003065;-30
2023/03/14 02:51:23;;;;;;;4.40;2.80;;;;;;;-128.00;-1.00;-1.00;98059;294;1003957;-30
2023/03/14 02:53:49;;;;;;;3.40;2.10;;;;;;;-128.00;-1.00;-1.00;97948;294;1003145;-30
2023/03/14 02:56:15;;;;;;;10.00;2.10;;;;;;;-128.00;-1.00;-1.00;97995;294;1003100;-34
2023/03/14 02:58:40;;;;;;;3.70;1.40;;;;;;;-128.00;-1.00;-1.00;97911;294;1004429;-33
2023/03/14 03:01:06;;;;;;;3.00;1.20;;;;;;;-128.00;-1.00;-1.00;97821;294;1003700;-28
2023/03/14 03:03:32;;;;;;;1.90;1.10;;;;;;;-128.00;-1.00;-1.00;97873;294;1004391;-34
2023/03/14 03:05:57;;;;;;;3.50;2.80;;;;;;;-128.00;-1.00;-1.00;97970;294;1003665;-33
2023/03/14 03:08:25;;;;;;;6.20;2.80;;;;;;;-128.00;-1.00;-1.00;97948;294;1004124;-37
2023/03/14 03:10:51;;;;;;;5.20;2.90;;;;;;;-128.00;-1.00;-1.00;97892;294;1003380;-30
2023/03/14 03:13:17;;;;;;;5.60;2.60;;;;;;;-128.00;-1.00;-1.00;97891;294;1005175;-29
2023/03/14 03:15:43;;;;;;;5.60;2.10;;;;;;;-128.00;-1.00;-1.00;97944;294;1003382;-33
2023/03/14 03:18:09;;;;;;;3.40;2.30;;;;;;;-128.00;-1.00;-1.00;98006;294;1002646;-30
2023/03/14 03:20:35;;;;;;;3.00;1.50;;;;;;;-128.00;-1.00;-1.00;97983;296;1004038;-30
2023/03/14 03:23:01;;;;;;;2.30;1.30;;;;;;;-128.00;-1.00;-1.00;97898;296;1002342;-30
2023/03/14 03:25:27;;;;;;;6.20;1.90;;;;;;;-128.00;-1.00;-1.00;98008;282;1002932;-29
2023/03/14 03:27:52;;;;;;;3.30;1.60;;;;;;;-128.00;-1.00;-1.00;98011;294;1003055;-36
2023/03/14 03:30:18;;;;;;;6.30;1.40;;;;;;;-128.00;-1.00;-1.00;98126;294;1003722;-29
2023/03/14 03:32:44;;;;;;;3.10;1.40;;;;;;;-128.00;-1.00;-1.00;97965;294;1003319;-29
2023/03/14 03:35:10;;;;;;;5.00;1.50;;;;;;;-128.00;-1.00;-1.00;98047;294;1003878;-38
2023/03/14 03:37:35;;;;;;;4.10;1.70;;;;;;;-128.00;-1.00;-1.00;97931;294;1003008;-30
2023/03/14 03:40:05;;;;;;;2.50;1.30;;;;;;;-128.00;-1.00;-1.00;97988;294;1003387;-33
2023/03/14 03:42:32;;;;;;;4.00;1.50;;;;;;;-128.00;-1.00;-1.00;97970;294;1003914;-27
2023/03/14 03:44:57;;;;;;;1.70;1.20;;;;;;;-128.00;-1.00;-1.00;97940;294;1003551;-29
2023/03/14 03:47:23;;;;;;;3.60;1.60;;;;;;;-128.00;-1.00;-1.00;97993;294;1003268;-35
2023/03/14 03:49:49;;;;;;;5.70;1.50;;;;;;;-128.00;-1.00;-1.00;97979;294;1004174;-34
2023/03/14 03:52:14;;;;;;;2.50;1.50;;;;;;;-128.00;-1.00;-1.00;98044;293;1003380;-34
2023/03/14 03:54:40;;;;;;;4.10;1.10;;;;;;;-128.00;-1.00;-1.00;97962;294;1003550;-30
2023/03/14 03:57:05;;;;;;;6.10;2.50;;;;;;;-128.00;-1.00;-1.00;98174;294;1003784;-29
2023/03/14 03:59:31;;;;;;;3.40;1.70;;;;;;;-128.00;-1.00;-1.00;98153;294;1002994;-29
2023/03/14 04:01:56;;;;;;;4.30;1.80;;;;;;;-128.00;-1.00;-1.00;97973;294;1003214;-33
2023/03/14 04:04:22;;;;;;;4.50;1.90;;;;;;;-128.00;-1.00;-1.00;98069;294;1003435;-32
2023/03/14 04:06:48;;;;;;;9.50;3.50;;;;;;;-128.00;-1.00;-1.00;98029;294;1003447;-34
2023/03/14 04:09:13;;;;;;;6.30;2.20;;;;;;;-128.00;-1.00;-1.00;98141;294;1003245;-30
2023/03/14 04:11:39;;;;;;;4.00;1.90;;;;;;;-128.00;-1.00;-1.00;98135;294;1004014;-30
2023/03/14 04:14:05;;;;;;;3.00;1.70;;;;;;;-128.00;-1.00;-1.00;98050;282;1003740;-32
2023/03/14 04:16:34;;;;;;;7.10;1.90;;;;;;;-128.00;-1.00;-1.00;98032;294;1004133;-34
2023/03/14 04:19:00;;;;;;;2.70;1.50;;;;;;;-128.00;-1.00;-1.00;97990;294;1003100;-31
2023/03/14 04:21:26;;;;;;;2.30;1.40;;;;;;;-128.00;-1.00;-1.00;98053;294;1003276;-29
2023/03/14 04:23:51;;;;;;;5.50;2.10;;;;;;;-128.00;-1.00;-1.00;97863;294;1003604;-33
2023/03/14 04:26:17;;;;;;;12.50;4.10;;;;;;;-128.00;-1.00;-1.00;98006;294;1003737;-33
2023/03/14 04:28:43;;;;;;;8.50;1.80;;;;;;;-128.00;-1.00;-1.00;98021;294;1004749;-30
2023/03/14 04:31:10;;;;;;;3.40;1.40;;;;;;;-128.00;-1.00;-1.00;97893;294;1004604;-30
2023/03/14 04:33:37;;;;;;;3.40;1.90;;;;;;;-128.00;-1.00;-1.00;97885;294;1003282;-35
2023/03/14 04:36:03;;;;;;;4.20;1.30;;;;;;;-128.00;-1.00;-1.00;97891;294;1004106;-30
2023/03/14 05:14:46;;;;;;;7.80;1.50;;;;;;;8.95;74.64;97422.46;100493;294;1558167;-32
2023/03/14 05:17:14;;;;;;;4.60;2.00;;;;;;;-128.00;-1.00;-1.00;97626;296;1003411;-30
2023/03/14 05:19:40;;;;;;;1.80;0.90;;;;;;;-128.00;-1.00;-1.00;97955;293;1003304;-34
2023/03/14 05:22:06;;;;;;;7.30;1.30;;;;;;;-128.00;-1.00;-1.00;98041;293;1003287;-29
2023/03/14 05:24:32;;;;;;;2.00;1.10;;;;;;;-128.00;-1.00;-1.00;98144;293;1003787;-28
2023/03/14 05:26:58;;;;;;;3.60;1.30;;;;;;;-128.00;-1.00;-1.00;97921;293;1003304;-28
2023/03/14 05:29:24;;;;;;;4.60;1.00;;;;;;;-128.00;-1.00;-1.00;97960;293;1003375;-32
2023/03/14 05:31:49;;;;;;;3.40;1.00;;;;;;;-128.00;-1.00;-1.00;97913;293;1003314;-30
2023/03/14 05:34:15;;;;;;;3.60;1.30;;;;;;;-128.00;-1.00;-1.00;97977;293;1004099;-30
2023/03/14 05:36:41;;;;;;;2.50;1.10;;;;;;;-128.00;-1.00;-1.00;97984;293;1003053;-33
2023/03/14 05:39:06;;;;;;;3.50;2.00;;;;;;;-128.00;-1.00;-1.00;98011;293;1003084;-30
2023/03/14 05:41:32;;;;;;;3.70;1.70;;;;;;;-128.00;-1.00;-1.00;97914;284;1003132;-33
2023/03/14 05:43:57;;;;;;;2.40;1.40;;;;;;;-128.00;-1.00;-1.00;98024;293;1003453;-38
2023/03/14 05:46:23;;;;;;;3.30;1.70;;;;;;;-128.00;-1.00;-1.00;97882;293;1003721;-31
2023/03/14 05:48:48;;;;;;;5.20;1.70;;;;;;;-128.00;-1.00;-1.00;98038;293;1003091;-35
2023/03/14 05:51:14;;;;;;;3.00;2.00;;;;;;;-128.00;-1.00;-1.00;98102;293;1004521;-32
2023/03/14 05:53:40;;;;;;;4.30;1.70;;;;;;;-128.00;-1.00;-1.00;97880;293;1003243;-29
2023/03/14 05:56:06;;;;;;;3.80;1.60;;;;;;;-128.00;-1.00;-1.00;97926;293;1002826;-33
2023/03/14 05:58:32;;;;;;;1.80;1.30;;;;;;;-128.00;-1.00;-1.00;97994;293;1003399;-32
2023/03/14 06:00:57;;;;;;;10.30;1.70;;;;;;;-128.00;-1.00;-1.00;97893;293;1003305;-33
2023/03/14 06:03:23;;;;;;;3.00;1.80;;;;;;;-128.00;-1.00;-1.00;97876;293;1003783;-30
2023/03/14 06:05:50;;;;;;;4.80;2.00;;;;;;;-128.00;-1.00;-1.00;97885;295;1004561;-33
2023/03/14 06:08:16;;;;;;;3.20;1.60;;;;;;;-128.00;-1.00;-1.00;97930;293;1003418;-33
2023/03/14 06:10:42;;;;;;;5.80;1.40;;;;;;;-128.00;-1.00;-1.00;97930;293;1004464;-30
2023/03/14 06:13:07;;;;;;;2.10;1.30;;;;;;;-128.00;-1.00;-1.00;97953;293;1003486;-35
2023/03/14 06:15:33;;;;;;;2.40;1.20;;;;;;;-128.00;-1.00;-1.00;97851;293;1002853;-28
2023/03/14 06:18:00;;;;;;;4.00;1.50;;;;;;;-128.00;-1.00;-1.00;97974;294;1003079;-31
2023/03/14 06:20:25;;;;;;;5.20;1.70;;;;;;;-128.00;-1.00;-1.00;97972;294;1003617;-31
2023/03/14 06:22:51;;;;;;;2.80;1.70;;;;;;;-128.00;-1.00;-1.00;97836;294;1003387;-35
2023/03/14 06:25:17;;;;;;;4.10;1.30;;;;;;;-128.00;-1.00;-1.00;97949;294;1002971;-33
2023/03/14 06:27:42;;;;;;;6.90;1.70;;;;;;;-128.00;-1.00;-1.00;97941;294;1003981;-33
2023/03/14 06:30:09;;;;;;;3.50;2.00;;;;;;;-128.00;-1.00;-1.00;97789;294;1002570;-33
2023/03/14 06:32:34;;;;;;;4.60;1.50;;;;;;;-128.00;-1.00;-1.00;98087;294;1003440;-32
2023/03/14 06:35:00;;;;;;;3.70;2.00;;;;;;;-128.00;-1.00;-1.00;97922;295;1003287;-32
2023/03/14 06:37:28;;;;;;;2.80;1.30;;;;;;;-128.00;-1.00;-1.00;97904;294;1002801;-35
2023/03/14 06:39:54;;;;;;;4.20;1.80;;;;;;;-128.00;-1.00;-1.00;98031;294;1003468;-30
2023/03/14 06:42:20;;;;;;;3.70;2.10;;;;;;;-128.00;-1.00;-1.00;97930;294;1004255;-30
2023/03/14 06:44:46;;;;;;;3.00;1.80;;;;;;;-128.00;-1.00;-1.00;97920;294;1002685;-28
2023/03/14 06:47:12;;;;;;;4.70;1.90;;;;;;;-128.00;-1.00;-1.00;97966;294;1004560;-33
2023/03/14 06:49:38;;;;;;;3.10;2.10;;;;;;;-128.00;-1.00;-1.00;97834;294;1003228;-34
2023/03/14 06:52:03;;;;;;;17.00;2.30;;;;;;;-128.00;-1.00;-1.00;97916;294;1003585;-32
2023/03/14 06:54:29;;;;;;;4.50;2.30;;;;;;;-128.00;-1.00;-1.00;97879;286;1002641;-34
2023/03/14 06:56:55;;;;;;;8.80;1.90;;;;;;;-128.00;-1.00;-1.00;97804;294;1003062;-32
2023/03/14 06:59:21;;;;;;;1.70;1.10;;;;;;;-128.00;-1.00;-1.00;97990;294;1003249;-33
2023/03/14 07:01:48;;;;;;;3.50;1.70;;;;;;;-128.00;-1.00;-1.00;97861;294;1003015;-32
2023/03/14 07:04:13;;;;;;;1.70;0.90;;;;;;;-128.00;-1.00;-1.00;98094;294;1003330;-36
2023/03/14 07:06:43;;;;;;;3.90;1.90;;;;;;;-128.00;-1.00;-1.00;97853;294;1004660;-34
2023/03/14 07:09:10;;;;;;;4.30;2.20;;;;;;;-128.00;-1.00;-1.00;97928;294;1003215;-35
2023/03/14 07:11:36;;;;;;;7.00;3.00;;;;;;;-128.00;-1.00;-1.00;98019;294;1002841;-32
2023/03/14 07:14:02;;;;;;;4.10;1.60;;;;;;;-128.00;-1.00;-1.00;97817;294;1004565;-34
2023/03/14 07:16:31;;;;;;;5.20;2.20;;;;;;;-128.00;-1.00;-1.00;97939;294;1003897;-33
2023/03/14 07:18:57;;;;;;;3.30;1.90;;;;;;;-128.00;-1.00;-1.00;97999;294;1003039;-33
2023/03/14 07:21:23;;;;;;;3.20;1.90;;;;;;;-128.00;-1.00;-1.00;97817;294;1004815;-29
2023/03/14 07:23:48;;;;;;;4.10;2.30;;;;;;;-128.00;-1.00;-1.00;97951;296;1003144;-29
2023/03/14 07:26:14;;;;;;;3.50;2.40;;;;;;;-128.00;-1.00;-1.00;97852;294;1003043;-35
2023/03/14 07:28:40;;;;;;;8.50;2.50;;;;;;;-128.00;-1.00;-1.00;97979;294;1003169;-30
2023/03/14 07:31:06;;;;;;;3.00;1.30;;;;;;;-128.00;-1.00;-1.00;97967;294;1004364;-30
2023/03/14 07:33:31;;;;;;;4.20;2.40;;;;;;;-128.00;-1.00;-1.00;97969;293;1003922;-32
2023/03/14 07:35:57;;;;;;;2.90;1.60;;;;;;;-128.00;-1.00;-1.00;97901;295;1002678;-29
2023/03/14 07:38:23;;;;;;;3.60;2.20;;;;;;;-128.00;-1.00;-1.00;97943;294;1004071;-30
2023/03/14 07:40:49;;;;;;;9.90;2.60;;;;;;;-128.00;-1.00;-1.00;97989;294;1003297;-30
2023/03/14 07:43:14;;;;;;;8.20;2.30;;;;;;;-128.00;-1.00;-1.00;97877;294;1003522;-33
2023/03/14 07:45:40;;;;;;;6.00;2.10;;;;;;;-128.00;-1.00;-1.00;97827;294;1003084;-35
2023/03/14 07:48:06;;;;;;;4.20;1.70;;;;;;;-128.00;-1.00;-1.00;97896;294;1004324;-30
2023/03/14 07:50:31;;;;;;;4.20;2.00;;;;;;;-128.00;-1.00;-1.00;98008;294;1003374;-34
2023/03/14 07:52:57;;;;;;;4.20;2.30;;;;;;;-128.00;-1.00;-1.00;98013;294;1003849;-29
2023/03/14 07:55:22;;;;;;;3.70;1.80;;;;;;;-128.00;-1.00;-1.00;97831;294;1002740;-33
2023/03/14 07:57:48;;;;;;;4.80;2.50;;;;;;;-128.00;-1.00;-1.00;97863;294;1003538;-34
2023/03/14 08:00:14;;;;;;;6.50;3.10;;;;;;;-128.00;-1.00;-1.00;97966;294;1004337;-31
2023/03/14 08:02:41;;;;;;;8.40;2.10;;;;;;;-128.00;-1.00;-1.00;97929;294;1003083;-33
2023/03/14 08:05:06;;;;;;;5.50;2.90;;;;;;;-128.00;-1.00;-1.00;97853;294;1003011;-32
2023/03/14 08:07:32;;;;;;;4.60;2.60;;;;;;;-128.00;-1.00;-1.00;97950;294;1003394;-30
2023/03/14 08:09:58;;;;;;;3.30;2.00;;;;;;;-128.00;-1.00;-1.00;97908;294;1003255;-34
2023/03/14 08:12:24;;;;;;;4.70;2.30;;;;;;;-128.00;-1.00;-1.00;98035;294;1004176;-29
2023/03/14 08:14:50;;;;;;;6.90;3.10;;;;;;;-128.00;-1.00;-1.00;97930;294;1003703;-31
2023/03/14 08:17:15;;;;;;;4.60;2.10;;;;;;;-128.00;-1.00;-1.00;97993;294;1003239;-32
2023/03/14 08:19:44;;;;;;;4.00;2.10;;;;;;;-128.00;-1.00;-1.00;98041;294;1004922;-32
2023/03/14 08:22:10;;;;;;;3.40;2.00;;;;;;;-128.00;-1.00;-1.00;97907;294;1003496;-29
2023/03/14 08:24:36;;;;;;;5.50;2.40;;;;;;;-128.00;-1.00;-1.00;98019;294;1004789;-29
2023/03/14 08:27:01;;;;;;;2.90;2.40;;;;;;;-128.00;-1.00;-1.00;97924;294;1003129;-38
2023/03/14 08:29:27;;;;;;;23.80;2.90;;;;;;;-128.00;-1.00;-1.00;98006;294;1003602;-33
2023/03/14 08:31:54;;;;;;;10.70;3.30;;;;;;;-128.00;-1.00;-1.00;97762;285;1003533;-30
2023/03/14 08:34:20;;;;;;;4.40;2.30;;;;;;;-128.00;-1.00;-1.00;98022;296;1003340;-29
2023/03/14 08:36:46;;;;;;;3.90;2.20;;;;;;;-128.00;-1.00;-1.00;97877;294;1003362;-34
2023/03/14 08:39:12;;;;;;;11.20;2.50;;;;;;;-128.00;-1.00;-1.00;97895;294;1003972;-30
2023/03/14 08:41:40;;;;;;;4.30;2.10;;;;;;;-128.00;-1.00;-1.00;97984;294;1003960;-30
2023/03/14 08:44:07;;;;;;;3.70;2.10;;;;;;;-128.00;-1.00;-1.00;97906;294;1004914;-29
2023/03/14 08:46:33;;;;;;;4.70;2.60;;;;;;;-128.00;-1.00;-1.00;97933;294;1004140;-37
2023/03/14 08:48:58;;;;;;;6.30;2.10;;;;;;;-128.00;-1.00;-1.00;97902;294;1003337;-33
2023/03/14 08:51:24;;;;;;;6.00;2.10;;;;;;;-128.00;-1.00;-1.00;97900;294;1003165;-32
2023/03/14 08:53:50;;;;;;;8.40;2.40;;;;;;;-128.00;-1.00;-1.00;97955;294;1003766;-36
2023/03/14 08:56:15;;;;;;;3.00;1.80;;;;;;;-128.00;-1.00;-1.00;97966;294;1002629;-30
2023/03/14 08:58:41;;;;;;;5.00;2.30;;;;;;;-128.00;-1.00;-1.00;98089;294;1003767;-29
2023/03/14 09:01:08;;;;;;;5.40;1.80;;;;;;;-128.00;-1.00;-1.00;98029;294;1004497;-30
2023/03/14 09:03:34;;;;;;;2.90;1.60;;;;;;;-128.00;-1.00;-1.00;97969;295;1003234;-34
2023/03/14 09:06:04;;;;;;;4.50;2.10;;;;;;;-128.00;-1.00;-1.00;97906;283;1002748;-31
2023/03/14 09:08:31;;;;;;;5.20;2.10;;;;;;;-128.00;-1.00;-1.00;97986;294;1002944;-33
2023/03/14 09:10:57;;;;;;;4.10;2.50;;;;;;;-128.00;-1.00;-1.00;97941;294;1004446;-37
2023/03/14 09:13:22;;;;;;;4.20;2.10;;;;;;;-128.00;-1.00;-1.00;98028;294;1003002;-31
2023/03/14 09:15:52;;;;;;;4.60;2.20;;;;;;;-128.00;-1.00;-1.00;97919;294;1003164;-33
2023/03/14 09:18:18;;;;;;;4.50;2.40;;;;;;;-128.00;-1.00;-1.00;97975;286;1003668;-30
2023/03/14 09:20:45;;;;;;;3.50;2.00;;;;;;;-128.00;-1.00;-1.00;98143;294;1003356;-32
2023/03/14 09:23:11;;;;;;;3.20;2.10;;;;;;;-128.00;-1.00;-1.00;97888;295;1004962;-30
2023/03/14 09:25:37;;;;;;;6.60;2.40;;;;;;;-128.00;-1.00;-1.00;97820;296;1003951;-29
2023/03/14 09:28:02;;;;;;;3.70;2.40;;;;;;;-128.00;-1.00;-1.00;97901;294;1002753;-29
2023/03/14 09:30:28;;;;;;;8.00;2.50;;;;;;;-128.00;-1.00;-1.00;97941;294;1004526;-32
2023/03/14 09:32:54;;;;;;;3.10;2.00;;;;;;;-128.00;-1.00;-1.00;97985;294;1003429;-30
2023/03/14 09:35:19;;;;;;;12.80;2.30;;;;;;;-128.00;-1.00;-1.00;97915;294;1003343;-34
2023/03/14 09:37:45;;;;;;;7.60;2.30;;;;;;;-128.00;-1.00;-1.00;98045;294;1004102;-33
2023/03/14 09:40:15;;;;;;;6.40;2.40;;;;;;;-128.00;-1.00;-1.00;97904;295;1003264;-33
2023/03/14 09:42:41;;;;;;;3.80;2.50;;;;;;;-128.00;-1.00;-1.00;98014;294;1003808;-33
2023/03/14 09:45:13;;;;;;;8.00;2.60;;;;;;;-128.00;-1.00;-1.00;98032;294;1003294;-29
2023/03/14 09:47:38;;;;;;;7.10;2.40;;;;;;;-128.00;-1.00;-1.00;98109;294;1004315;-33
2023/03/14 09:50:09;;;;;;;5.10;2.50;;;;;;;-128.00;-1.00;-1.00;97890;284;1004110;-31
2023/03/14 09:52:39;;;;;;;5.80;3.20;;;;;;;-128.00;-1.00;-1.00;97995;294;1004686;-30
2023/03/14 09:55:07;;;;;;;6.00;2.80;;;;;;;-128.00;-1.00;-1.00;97854;294;1003157;-35
2023/03/14 09:57:34;;;;;;;4.10;2.30;;;;;;;-128.00;-1.00;-1.00;97913;294;1003353;-31
2023/03/14 10:00:13;;;;;;;3.90;2.60;;;;;;;-128.00;-1.00;-1.00;97969;294;1002802;-36
2023/03/14 10:02:40;;;;;;;4.10;2.70;;;;;;;-128.00;-1.00;-1.00;97883;286;1002965;-35
2023/03/14 10:05:19;;;;;;;7.60;3.00;;;;;;;-128.00;-1.00;-1.00;97994;294;1003343;-36
2023/03/14 10:07:44;;;;;;;4.60;2.60;;;;;;;-128.00;-1.00;-1.00;97884;294;1003134;-36
2023/03/14 10:10:16;;;;;;;4.40;2.20;;;;;;;-128.00;-1.00;-1.00;98018;294;1003421;-31
2023/03/14 10:12:45;;;;;;;4.80;2.50;;;;;;;-128.00;-1.00;-1.00;97808;294;1002954;-35
2023/03/14 10:15:12;;;;;;;3.80;3.30;;;;;;;-128.00;-1.00;-1.00;97995;294;1004741;-33
2023/03/14 10:17:39;;;;;;;15.50;2.50;;;;;;;-128.00;-1.00;-1.00;97842;294;1003130;-35
2023/03/14 10:20:05;;;;;;;5.80;3.30;;;;;;;-128.00;-1.00;-1.00;98016;294;1002804;-35
2023/03/14 10:22:31;;;;;;;8.60;2.80;;;;;;;-128.00;-1.00;-1.00;97922;294;1003173;-35
2023/03/14 10:25:01;;;;;;;10.30;3.50;;;;;;;-128.00;-1.00;-1.00;97996;294;1003798;-34
2023/03/14 10:27:28;;;;;;;17.90;6.30;;;;;;;-128.00;-1.00;-1.00;97901;294;1003210;-33
2023/03/14 10:29:55;;;;;;;10.80;4.60;;;;;;;-128.00;-1.00;-1.00;97977;294;1003532;-33
2023/03/14 10:32:22;;;;;;;3.80;3.40;;;;;;;-128.00;-1.00;-1.00;97865;294;1004310;-37
2023/03/14 10:35:15;;;;;;;7.20;3.80;;;;;;;-128.00;-1.00;-1.00;97829;282;1004324;-33
2023/03/14 10:37:54;;;;;;;10.90;4.30;;;;;;;-128.00;-1.00;-1.00;98006;294;1003631;-36
2023/03/14 10:40:24;;;;;;;5.40;2.60;;;;;;;-128.00;-1.00;-1.00;97892;294;1003583;-35
2023/03/14 10:42:51;;;;;;;7.80;3.80;;;;;;;-128.00;-1.00;-1.00;97857;294;1003773;-35
2023/03/14 10:45:33;;;;;;;7.30;3.60;;;;;;;-128.00;-1.00;-1.00;97961;294;1002910;-33
2023/03/14 10:48:16;;;;;;;6.60;4.60;;;;;;;-128.00;-1.00;-1.00;98002;294;1003120;-35
2023/03/14 10:50:56;;;;;;;6.20;4.90;;;;;;;-128.00;-1.00;-1.00;98030;294;1003105;-35
2023/03/14 10:53:22;;;;;;;6.90;4.30;;;;;;;-128.00;-1.00;-1.00;97915;294;1002259;-35
2023/03/14 10:55:49;;;;;;;9.00;5.80;;;;;;;-128.00;-1.00;-1.00;97884;294;1003434;-33
2023/03/14 10:58:28;;;;;;;10.80;5.90;;;;;;;-128.00;-1.00;-1.00;97952;294;1002935;-35
2023/03/14 11:01:20;;;;;;;11.00;6.40;;;;;;;-128.00;-1.00;-1.00;98001;294;1004717;-36
2023/03/14 11:44:19;;;;;;;11.10;7.30;;;;;;;-101.00;19.20;19512.04;19520;297;8045647;-37
2023/03/14 11:47:00;;;;;;;10.70;7.00;;;;;;;-128.00;-1.00;-1.00;18108;326;7504884;-37
2023/03/14 11:49:40;;;;;;;8.70;6.80;;;;;;;-128.00;-1.00;-1.00;18466;338;7505051;-34
2023/03/14 11:52:10;;;;;;;11.90;7.10;;;;;;;-128.00;-1.00;-1.00;18482;296;7506033;-36
2023/03/14 11:54:45;;;;;;;10.20;6.40;;;;;;;-128.00;-1.00;-1.00;18463;312;7504964;-36
2023/03/14 11:57:14;;;;;;;12.50;5.50;;;;;;;-128.00;-1.00;-1.00;18473;296;7504267;-35
2023/03/14 11:59:46;;;;;;;6.90;4.00;;;;;;;-128.00;-1.00;-1.00;18473;341;7504418;-34
2023/03/14 12:02:19;;;;;;;10.80;5.50;;;;;;;-128.00;-1.00;-1.00;18457;296;7506030;-36
2023/03/14 12:05:16;;;;;;;10.90;5.90;;;;;;;-128.00;-1.00;-1.00;18457;298;7504628;-34
2023/03/14 12:08:06;;;;;;;5.70;4.80;;;;;;;-128.00;-1.00;-1.00;18462;297;7504593;-36
2023/03/14 12:10:40;;;;;;;8.10;5.90;;;;;;;-128.00;-1.00;-1.00;18470;296;7505114;-36
2023/03/14 12:13:13;;;;;;;7.80;5.60;;;;;;;-128.00;-1.00;-1.00;18466;348;7504124;-36
2023/03/14 12:15:40;;;;;;;5.80;5.30;;;;;;;-128.00;-1.00;-1.00;18482;296;7506767;-36
2023/03/14 12:18:19;;;;;;;7.60;5.20;;;;;;;-128.00;-1.00;-1.00;18451;297;7506253;-34
2023/03/14 12:20:51;;;;;;;9.00;6.00;;;;;;;-128.00;-1.00;-1.00;18483;296;7504707;-35
2023/03/14 12:23:17;;;;;;;11.40;5.60;;;;;;;-128.00;-1.00;-1.00;18468;292;7506097;-34
2023/03/14 12:25:43;;;;;;;12.10;8.30;;;;;;;-128.00;-1.00;-1.00;18453;296;7504683;-35
2023/03/14 12:28:21;;;;;;;17.20;6.90;;;;;;;-128.00;-1.00;-1.00;18501;296;7504425;-34
2023/03/14 12:30:47;;;;;;;12.20;6.70;;;;;;;-128.00;-1.00;-1.00;18465;298;7506121;-35
2023/03/14 12:33:30;;;;;;;11.50;6.40;;;;;;;-128.00;-1.00;-1.00;18451;296;7504623;-35
2023/03/14 12:36:00;;;;;;;21.30;7.50;;;;;;;-128.00;-1.00;-1.00;18436;299;7505177;-35
2023/03/14 12:38:50;;;;;;;23.10;11.30;;;;;;;-128.00;-1.00;-1.00;18460;309;7505288;-35
2023/03/14 12:41:25;;;;;;;25.90;13.40;;;;;;;-128.00;-1.00;-1.00;18470;296;7506926;-37
2023/03/14 12:43:50;;;;;;;50.40;18.50;;;;;;;-128.00;-1.00;-1.00;18462;310;7505447;-35
2023/03/14 12:46:25;;;;;;;32.70;11.40;;;;;;;-128.00;-1.00;-1.00;18464;297;7504861;-36
2023/03/14 12:49:08;;;;;;;26.10;10.30;;;;;;;-128.00;-1.00;-1.00;18458;297;7504855;-34
2023/03/14 12:51:43;;;;;;;27.00;8.60;;;;;;;-128.00;-1.00;-1.00;18474;297;7507044;-36